Time;durP1;ratioP1;P1;durP2;ratioP2;P2;SDS_P1;SDS_P2;PMS_P1;PMS_P2;Temp;Humidity;BMP_temperature;BMP_pressure;BME280_temperature;BME280_humidity;BME280_pressure;Samples;Min_cycle;Max_cycle;Signal;HPM_P1;HPM_P2
2021/01/15 00:01:01;;;;;;;28.10;17.23;;;;;;;;;;6208253;28;20125;-70
2021/01/15 00:04:04;;;;;;;16.50;10.45;;;;;;;;;;6198526;28;20544;-68
2021/01/15 00:07:05;;;;;;;15.60;9.88;;;;;;;;;;6212357;28;20077;-67
2021/01/15 00:10:07;;;;;;;14.93;9.35;;;;;;;;;;6209427;28;20038;-68
2021/01/15 00:13:09;;;;;;;14.15;9.57;;;;;;;;;;6208529;28;20042;-67
2021/01/15 00:16:18;;;;;;;16.63;9.18;;;;;;;;;;6208900;28;20050;-66
2021/01/15 00:19:19;;;;;;;14.63;9.32;;;;;;;;;;6210933;28;20045;-66
2021/01/15 00:22:20;;;;;;;15.60;8.85;;;;;;;;;;6210546;28;20046;-65
2021/01/15 00:25:21;;;;;;;15.98;8.93;;;;;;;;;;6212900;28;20423;-67
2021/01/15 00:28:22;;;;;;;15.07;7.97;;;;;;;;;;6215436;28;20041;-65
2021/01/15 00:31:31;;;;;;;19.33;8.35;;;;;;;;;;6209610;28;20493;-66
2021/01/15 00:34:32;;;;;;;13.43;7.47;;;;;;;;;;6200815;28;20049;-66
2021/01/15 00:37:33;;;;;;;13.75;7.75;;;;;;;;;;6204116;28;20050;-68
2021/01/15 00:40:34;;;;;;;13.25;7.18;;;;;;;;;;6204611;28;20053;-66
2021/01/15 00:43:35;;;;;;;11.65;7.20;;;;;;;;;;6206915;28;20401;-66
2021/01/15 00:46:45;;;;;;;11.38;7.13;;;;;;;;;;6211226;28;20400;-69
2021/01/15 00:49:46;;;;;;;10.25;7.07;;;;;;;;;;6200417;28;20081;-70
2021/01/15 00:52:47;;;;;;;12.75;7.32;;;;;;;;;;6212623;28;20050;-69
2021/01/15 00:55:52;;;;;;;14.27;7.50;;;;;;;;;;6212288;28;20065;-69
2021/01/15 00:58:53;;;;;;;15.43;8.02;;;;;;;;;;6209763;28;20053;-69
2021/01/15 01:01:55;;;;;;;14.20;7.38;;;;;;;;;;6205289;28;20096;-68
2021/01/15 01:04:56;;;;;;;14.45;8.25;;;;;;;;;;6211028;28;20167;-67
2021/01/15 01:07:57;;;;;;;15.93;9.57;;;;;;;;;;6212118;28;20050;-67
2021/01/15 01:10:58;;;;;;;15.05;10.55;;;;;;;;;;6210397;28;20054;-68
2021/01/15 01:14:00;;;;;;;19.08;11.23;;;;;;;;;;6210120;28;20050;-68
2021/01/15 01:17:03;;;;;;;22.75;14.35;;;;;;;;;;6211661;28;20436;-68
2021/01/15 01:20:06;;;;;;;33.13;21.20;;;;;;;;;;6214922;28;20041;-67
2021/01/15 01:23:07;;;;;;;33.83;22.00;;;;;;;;;;6218357;28;20077;-68
2021/01/15 01:26:08;;;;;;;33.97;21.90;;;;;;;;;;6213093;28;20137;-68
2021/01/15 01:29:10;;;;;;;37.15;23.63;;;;;;;;;;6214229;28;20045;-68
2021/01/15 01:32:12;;;;;;;37.03;23.75;;;;;;;;;;6214392;28;20077;-66
2021/01/15 01:35:15;;;;;;;38.15;24.60;;;;;;;;;;6202415;28;20041;-69
2021/01/15 01:38:16;;;;;;;39.50;23.60;;;;;;;;;;6213799;28;20056;-68
2021/01/15 01:41:17;;;;;;;37.47;23.77;;;;;;;;;;6206930;28;20084;-67
2021/01/15 01:44:18;;;;;;;38.60;24.30;;;;;;;;;;6210177;28;20044;-68
2021/01/15 01:47:20;;;;;;;40.90;24.42;;;;;;;;;;6210013;28;20137;-68
2021/01/15 01:50:21;;;;;;;38.33;24.08;;;;;;;;;;6211990;28;20045;-67
2021/01/15 01:53:26;;;;;;;40.13;24.60;;;;;;;;;;6209193;28;20492;-68
2021/01/15 01:56:27;;;;;;;37.47;24.08;;;;;;;;;;6209412;28;20053;-67
2021/01/15 01:59:28;;;;;;;40.08;23.98;;;;;;;;;;6214700;28;20140;-68
2021/01/15 02:02:30;;;;;;;32.75;21.58;;;;;;;;;;6210572;28;20496;-68
2021/01/15 02:05:31;;;;;;;34.67;19.95;;;;;;;;;;6210843;28;20543;-68
2021/01/15 02:08:32;;;;;;;30.25;19.33;;;;;;;;;;6213815;28;21436;-67
2021/01/15 02:11:36;;;;;;;29.55;19.98;;;;;;;;;;6214538;28;20528;-67
2021/01/15 02:14:47;;;;;;;30.95;19.52;;;;;;;;;;6214203;28;20065;-68
2021/01/15 02:17:53;;;;;;;29.55;20.05;;;;;;;;;;6215590;28;20050;-69
2021/01/15 02:21:27;;;;;;;31.00;19.42;;;;;;;;;;6212877;28;20057;-68
2021/01/15 02:24:48;;;;;;;30.92;20.02;;;;;;;;;;6214267;28;20038;-68
2021/01/15 02:28:04;;;;;;;30.80;19.95;;;;;;;;;;6211978;28;20053;-69
2021/01/15 02:31:16;;;;;;;28.85;18.90;;;;;;;;;;6216861;28;20042;-69
2021/01/15 02:34:27;;;;;;;28.88;18.00;;;;;;;;;;6216804;28;20070;-69
2021/01/15 02:37:38;;;;;;;29.20;17.30;;;;;;;;;;6213811;28;20050;-69
2021/01/15 02:40:41;;;;;;;27.88;17.25;;;;;;;;;;6216864;28;20181;-68
2021/01/15 02:43:43;;;;;;;21.50;15.45;;;;;;;;;;6204393;28;20046;-68
2021/01/15 02:46:49;;;;;;;24.73;16.30;;;;;;;;;;6215085;28;20060;-69
2021/01/15 02:49:52;;;;;;;27.95;16.75;;;;;;;;;;6211300;28;20055;-67
2021/01/15 02:52:54;;;;;;;27.77;18.27;;;;;;;;;;6210906;28;20049;-67
2021/01/15 02:55:55;;;;;;;24.10;16.48;;;;;;;;;;6213910;28;20120;-67
2021/01/15 02:58:56;;;;;;;25.23;17.00;;;;;;;;;;6213932;28;20042;-67
2021/01/15 03:02:01;;;;;;;25.30;17.15;;;;;;;;;;6212358;28;20497;-67
2021/01/15 03:05:07;;;;;;;25.30;17.60;;;;;;;;;;6216045;28;20056;-66
2021/01/15 03:08:09;;;;;;;27.17;17.40;;;;;;;;;;6209721;28;20073;-67
2021/01/15 03:11:10;;;;;;;27.42;17.23;;;;;;;;;;6211357;28;20125;-68
2021/01/15 03:14:12;;;;;;;25.23;17.17;;;;;;;;;;6209015;28;20088;-68
2021/01/15 03:17:14;;;;;;;26.35;17.25;;;;;;;;;;6208167;28;20105;-68
2021/01/15 03:20:16;;;;;;;28.35;17.50;;;;;;;;;;6206718;28;20042;-68
2021/01/15 03:23:17;;;;;;;26.70;17.58;;;;;;;;;;6209289;28;20046;-68
2021/01/15 03:26:19;;;;;;;25.75;17.23;;;;;;;;;;6207381;28;20042;-67
2021/01/15 03:29:20;;;;;;;24.15;16.77;;;;;;;;;;6210826;28;20046;-68
2021/01/15 03:32:21;;;;;;;29.55;16.98;;;;;;;;;;6212076;28;20100;-72
2021/01/15 03:35:24;;;;;;;26.85;15.27;;;;;;;;;;6217097;28;20106;-68
2021/01/15 03:38:25;;;;;;;24.67;15.48;;;;;;;;;;6212756;28;20594;-67
2021/01/15 03:41:26;;;;;;;23.23;14.93;;;;;;;;;;6210108;28;20050;-68
2021/01/15 03:44:27;;;;;;;21.67;14.30;;;;;;;;;;6212219;28;20042;-68
2021/01/15 03:47:30;;;;;;;21.73;13.40;;;;;;;;;;6209224;28;20056;-68
2021/01/15 03:50:32;;;;;;;21.90;13.88;;;;;;;;;;6207834;28;20472;-68
2021/01/15 03:53:33;;;;;;;20.63;13.32;;;;;;;;;;6209127;28;20496;-68
2021/01/15 03:56:34;;;;;;;22.00;13.02;;;;;;;;;;6205968;28;20053;-68
2021/01/15 03:59:35;;;;;;;19.92;13.18;;;;;;;;;;6207281;28;20125;-70
2021/01/15 04:02:36;;;;;;;21.60;12.82;;;;;;;;;;6208375;28;20397;-70
2021/01/15 04:05:38;;;;;;;20.88;12.00;;;;;;;;;;6207177;28;20057;-67
2021/01/15 04:08:40;;;;;;;16.65;10.38;;;;;;;;;;6214595;28;20084;-70
2021/01/15 04:11:41;;;;;;;17.50;9.63;;;;;;;;;;6214392;28;20072;-70
2021/01/15 04:14:43;;;;;;;14.82;9.10;;;;;;;;;;6218934;28;20054;-66
2021/01/15 04:17:45;;;;;;;11.23;7.45;;;;;;;;;;6211690;28;20050;-68
2021/01/15 04:20:47;;;;;;;10.90;6.60;;;;;;;;;;6216384;28;20052;-67
2021/01/15 04:23:48;;;;;;;10.43;6.00;;;;;;;;;;6210413;28;20062;-67
2021/01/15 04:26:51;;;;;;;8.88;5.15;;;;;;;;;;6207814;28;20453;-68
2021/01/15 04:29:52;;;;;;;8.40;4.00;;;;;;;;;;6219803;28;20046;-67
2021/01/15 04:32:53;;;;;;;5.60;3.53;;;;;;;;;;6217776;28;20183;-67
2021/01/15 04:35:55;;;;;;;6.15;2.92;;;;;;;;;;6217305;28;20669;-67
2021/01/15 04:38:56;;;;;;;7.47;3.42;;;;;;;;;;6214480;28;20087;-67
2021/01/15 04:41:58;;;;;;;9.27;2.83;;;;;;;;;;6209613;28;20411;-68
2021/01/15 04:45:00;;;;;;;6.35;2.50;;;;;;;;;;6210839;28;20396;-70
2021/01/15 04:48:01;;;;;;;5.20;2.78;;;;;;;;;;6211711;28;20046;-69
2021/01/15 04:51:03;;;;;;;6.00;2.50;;;;;;;;;;6211334;28;20053;-70
2021/01/15 04:54:06;;;;;;;7.75;3.22;;;;;;;;;;6211679;28;20065;-70
2021/01/15 04:57:08;;;;;;;8.15;2.60;;;;;;;;;;6212834;28;20069;-70
2021/01/15 05:00:11;;;;;;;6.20;2.55;;;;;;;;;;6214097;28;20128;-68
2021/01/15 05:03:14;;;;;;;6.22;2.75;;;;;;;;;;6215427;28;20045;-68
2021/01/15 05:06:21;;;;;;;6.80;2.30;;;;;;;;;;6213708;28;20056;-68
2021/01/15 05:09:23;;;;;;;5.40;2.47;;;;;;;;;;6210012;28;20044;-69
2021/01/15 05:12:29;;;;;;;9.18;2.88;;;;;;;;;;6210382;28;20480;-68
2021/01/15 05:15:30;;;;;;;8.50;2.38;;;;;;;;;;6215122;28;20673;-68
2021/01/15 05:18:32;;;;;;;3.67;2.40;;;;;;;;;;6209145;28;20042;-67
2021/01/15 05:21:35;;;;;;;4.53;2.40;;;;;;;;;;6213904;28;20049;-68
2021/01/15 05:24:37;;;;;;;4.65;2.40;;;;;;;;;;6216314;28;20541;-70
2021/01/15 05:27:43;;;;;;;5.07;2.58;;;;;;;;;;6211478;28;20089;-67
2021/01/15 05:30:44;;;;;;;6.00;2.40;;;;;;;;;;6210582;28;20514;-67
2021/01/15 05:34:06;;;;;;;4.70;2.50;;;;;;;;;;6215836;28;20120;-70
2021/01/15 05:37:08;;;;;;;4.72;2.60;;;;;;;;;;6212331;28;20052;-70
2021/01/15 05:40:10;;;;;;;4.93;2.10;;;;;;;;;;6215139;28;20054;-69
2021/01/15 05:43:23;;;;;;;7.57;2.50;;;;;;;;;;6216570;28;20042;-67
2021/01/15 05:46:24;;;;;;;5.55;2.20;;;;;;;;;;6212782;28;20040;-67
2021/01/15 05:49:25;;;;;;;6.13;2.10;;;;;;;;;;6217658;28;20044;-68
2021/01/15 05:52:27;;;;;;;8.25;2.25;;;;;;;;;;6210604;28;20046;-68
2021/01/15 05:55:28;;;;;;;6.97;2.20;;;;;;;;;;6209928;28;20049;-68
2021/01/15 05:58:29;;;;;;;5.78;2.67;;;;;;;;;;6208501;28;20061;-68
2021/01/15 06:01:52;;;;;;;6.40;2.83;;;;;;;;;;6207953;28;20052;-70
2021/01/15 06:04:53;;;;;;;7.82;2.88;;;;;;;;;;6204344;28;20046;-70
2021/01/15 06:07:55;;;;;;;7.70;2.38;;;;;;;;;;6209546;28;20053;-71
2021/01/15 06:10:56;;;;;;;4.70;2.50;;;;;;;;;;6206787;28;20072;-70
2021/01/15 06:13:57;;;;;;;5.25;2.42;;;;;;;;;;6213162;28;20041;-72
2021/01/15 06:17:02;;;;;;;3.60;2.20;;;;;;;;;;6209548;28;20042;-70
2021/01/15 06:20:04;;;;;;;7.30;2.67;;;;;;;;;;6209852;28;20073;-70
2021/01/15 06:23:12;;;;;;;11.93;2.60;;;;;;;;;;6208720;28;20073;-68
2021/01/15 06:26:15;;;;;;;15.13;2.70;;;;;;;;;;6213933;28;20072;-68
2021/01/15 06:29:17;;;;;;;6.28;2.20;;;;;;;;;;6215452;28;20050;-68
2021/01/15 06:32:25;;;;;;;10.43;2.42;;;;;;;;;;6213404;28;20041;-68
2021/01/15 06:35:27;;;;;;;9.43;2.35;;;;;;;;;;6207149;28;20062;-70
2021/01/15 06:38:30;;;;;;;5.97;2.25;;;;;;;;;;6210290;28;20483;-67
2021/01/15 06:41:31;;;;;;;6.78;2.00;;;;;;;;;;6214379;28;20539;-72
2021/01/15 06:44:32;;;;;;;7.53;2.22;;;;;;;;;;6213834;28;20072;-66
2021/01/15 06:47:36;;;;;;;14.25;2.28;;;;;;;;;;6210741;28;20136;-67
2021/01/15 06:50:38;;;;;;;11.02;2.40;;;;;;;;;;6211402;28;20038;-68
2021/01/15 06:53:41;;;;;;;5.93;1.88;;;;;;;;;;6210814;28;20053;-69
2021/01/15 06:56:52;;;;;;;5.53;2.25;;;;;;;;;;6211743;28;20077;-68
2021/01/15 06:59:58;;;;;;;9.68;2.30;;;;;;;;;;6213110;28;20135;-68
2021/01/15 07:03:19;;;;;;;8.68;2.35;;;;;;;;;;6214374;28;20050;-68
2021/01/15 07:06:22;;;;;;;7.50;2.17;;;;;;;;;;6212952;28;20038;-68
2021/01/15 07:09:27;;;;;;;8.52;2.00;;;;;;;;;;6211687;28;20038;-68
2021/01/15 07:12:28;;;;;;;3.83;2.13;;;;;;;;;;6212028;28;20786;-68
2021/01/15 07:15:32;;;;;;;6.22;2.35;;;;;;;;;;6210381;28;20042;-67
2021/01/15 07:18:34;;;;;;;6.10;2.20;;;;;;;;;;6210404;28;20117;-69
2021/01/15 07:21:37;;;;;;;7.70;2.03;;;;;;;;;;6208207;28;20058;-72
2021/01/15 07:24:40;;;;;;;5.38;2.10;;;;;;;;;;6213909;28;20057;-68
2021/01/15 07:27:42;;;;;;;8.32;2.28;;;;;;;;;;6211389;28;20053;-69
2021/01/15 07:30:43;;;;;;;3.13;2.03;;;;;;;;;;6209839;28;20042;-71
2021/01/15 07:33:44;;;;;;;8.15;2.25;;;;;;;;;;6213488;28;20468;-72
2021/01/15 07:36:45;;;;;;;6.13;2.00;;;;;;;;;;6214071;28;20042;-69
2021/01/15 07:40:10;;;;;;;3.45;2.30;;;;;;;;;;6214217;28;20424;-69
2021/01/15 07:43:29;;;;;;;7.05;2.85;;;;;;;;;;6212191;28;20046;-69
2021/01/15 07:46:46;;;;;;;8.73;2.47;;;;;;;;;;6209409;28;20065;-68
2021/01/15 07:49:48;;;;;;;4.30;2.20;;;;;;;;;;6178231;28;20630;-69
2021/01/15 07:53:03;;;;;;;4.65;2.50;;;;;;;;;;6205873;28;20089;-70
2021/01/15 07:56:06;;;;;;;4.22;2.30;;;;;;;;;;6209171;28;20085;-68
2021/01/15 07:59:07;;;;;;;7.80;2.38;;;;;;;;;;6209370;28;20387;-70
2021/01/15 08:02:09;;;;;;;6.53;2.35;;;;;;;;;;6206101;28;20659;-71
2021/01/15 08:05:11;;;;;;;8.30;2.30;;;;;;;;;;6211122;28;20066;-69
2021/01/15 08:08:14;;;;;;;7.00;1.92;;;;;;;;;;6209129;28;20065;-70
2021/01/15 08:11:16;;;;;;;4.65;2.20;;;;;;;;;;6209034;28;20073;-69
2021/01/15 08:14:20;;;;;;;6.28;2.22;;;;;;;;;;6211526;28;20049;-69
2021/01/15 08:17:27;;;;;;;6.20;2.13;;;;;;;;;;6211152;28;20236;-69
2021/01/15 08:20:29;;;;;;;5.15;2.55;;;;;;;;;;6213289;28;20424;-69
2021/01/15 08:23:30;;;;;;;6.10;2.78;;;;;;;;;;6204248;28;20050;-69
2021/01/15 08:26:43;;;;;;;4.57;2.72;;;;;;;;;;6204568;28;20046;-71
2021/01/15 08:29:44;;;;;;;6.47;2.33;;;;;;;;;;6206645;28;20046;-69
2021/01/15 08:32:45;;;;;;;5.95;2.80;;;;;;;;;;6211662;28;20536;-70
2021/01/15 08:35:52;;;;;;;6.10;2.80;;;;;;;;;;6209416;28;20050;-71
2021/01/15 08:38:56;;;;;;;7.50;2.50;;;;;;;;;;6210067;28;20058;-69
2021/01/15 08:41:59;;;;;;;;;;;;;;;;;;6208424;28;20407;-70
2021/01/15 08:45:00;;;;;;;7.88;2.40;;;;;;;;;;6209254;28;20044;-69
2021/01/15 08:48:02;;;;;;;9.50;2.65;;;;;;;;;;6201556;28;20495;-70
2021/01/15 08:51:09;;;;;;;9.35;2.80;;;;;;;;;;6204014;28;21017;-71
2021/01/15 08:54:11;;;;;;;6.82;2.83;;;;;;;;;;6206685;28;20555;-71
2021/01/15 08:57:14;;;;;;;5.13;2.60;;;;;;;;;;6206182;28;20050;-70
2021/01/15 09:00:18;;;;;;;6.03;3.20;;;;;;;;;;6205715;28;20452;-71
2021/01/15 09:03:20;;;;;;;12.23;2.95;;;;;;;;;;6205492;28;20443;-71
2021/01/15 09:06:21;;;;;;;5.20;2.83;;;;;;;;;;6210758;28;20046;-70
2021/01/15 09:09:23;;;;;;;5.95;2.80;;;;;;;;;;6213112;28;20046;-70
2021/01/15 09:12:25;;;;;;;8.68;3.08;;;;;;;;;;6211907;28;20245;-71
2021/01/15 09:15:27;;;;;;;9.10;3.00;;;;;;;;;;6206278;28;20057;-70
2021/01/15 09:18:29;;;;;;;9.43;2.72;;;;;;;;;;6209477;28;20042;-70
2021/01/15 09:21:30;;;;;;;9.63;2.92;;;;;;;;;;6211175;28;20060;-70
2021/01/15 09:24:32;;;;;;;6.22;2.40;;;;;;;;;;6213807;28;20058;-70
2021/01/15 09:27:34;;;;;;;5.22;2.60;;;;;;;;;;6209172;28;20054;-71
2021/01/15 09:30:35;;;;;;;4.93;2.78;;;;;;;;;;6204516;28;20072;-72
2021/01/15 09:33:46;;;;;;;7.95;2.85;;;;;;;;;;6195080;28;21064;-70
2021/01/15 09:36:48;;;;;;;12.68;3.20;;;;;;;;;;6202597;28;20073;-72
2021/01/15 09:39:49;;;;;;;10.35;2.97;;;;;;;;;;6206154;28;20054;-70
2021/01/15 09:42:51;;;;;;;12.98;3.25;;;;;;;;;;6209792;28;20160;-71
2021/01/15 09:45:52;;;;;;;5.35;2.97;;;;;;;;;;6208288;28;20444;-70
2021/01/15 09:48:55;;;;;;;9.63;2.75;;;;;;;;;;6197804;28;20180;-70
2021/01/15 09:51:56;;;;;;;4.80;2.40;;;;;;;;;;6210514;28;20050;-71
2021/01/15 09:54:57;;;;;;;4.63;2.67;;;;;;;;;;6208026;28;20060;-71
2021/01/15 09:57:59;;;;;;;6.25;2.83;;;;;;;;;;6205287;28;20457;-71
2021/01/15 10:01:00;;;;;;;5.72;2.80;;;;;;;;;;6209746;28;20140;-71
2021/01/15 10:04:01;;;;;;;5.90;3.03;;;;;;;;;;6210166;28;20041;-70
2021/01/15 10:07:02;;;;;;;6.45;2.55;;;;;;;;;;6214432;28;20054;-70
2021/01/15 10:10:05;;;;;;;8.25;2.65;;;;;;;;;;6210608;28;20046;-70
2021/01/15 10:13:07;;;;;;;4.10;2.50;;;;;;;;;;6202639;28;20073;-71
2021/01/15 10:16:08;;;;;;;6.22;2.75;;;;;;;;;;6198847;28;20096;-69
2021/01/15 10:19:09;;;;;;;5.30;2.80;;;;;;;;;;6208555;28;20057;-70
2021/01/15 10:22:10;;;;;;;4.63;2.53;;;;;;;;;;6209701;28;20125;-69
2021/01/15 10:25:12;;;;;;;5.82;2.33;;;;;;;;;;6206665;28;20169;-69
2021/01/15 10:28:14;;;;;;;6.70;2.63;;;;;;;;;;6211478;28;20117;-69
2021/01/15 10:31:16;;;;;;;7.45;2.95;;;;;;;;;;6211025;28;20056;-69
2021/01/15 10:34:17;;;;;;;5.13;2.47;;;;;;;;;;6212071;28;20042;-72
2021/01/15 10:37:18;;;;;;;7.10;3.15;;;;;;;;;;6210068;28;20046;-71
2021/01/15 10:40:19;;;;;;;7.93;2.83;;;;;;;;;;6211942;28;20045;-69
2021/01/15 10:43:21;;;;;;;7.95;2.33;;;;;;;;;;6213287;28;20062;-69
2021/01/15 10:46:28;;;;;;;5.40;2.83;;;;;;;;;;6212205;28;20046;-69
2021/01/15 10:49:29;;;;;;;5.45;2.67;;;;;;;;;;6214114;28;20121;-70
2021/01/15 10:52:30;;;;;;;4.57;2.75;;;;;;;;;;6212583;28;20050;-71
2021/01/15 10:55:31;;;;;;;4.22;2.95;;;;;;;;;;6210955;28;20557;-70
2021/01/15 10:58:33;;;;;;;4.57;2.20;;;;;;;;;;6208129;28;20053;-69
2021/01/15 11:01:35;;;;;;;6.32;2.60;;;;;;;;;;6204223;28;20134;-69
2021/01/15 11:04:36;;;;;;;6.43;2.42;;;;;;;;;;6209364;28;20508;-69
2021/01/15 11:07:37;;;;;;;4.80;2.50;;;;;;;;;;6209725;28;20132;-69
2021/01/15 11:10:38;;;;;;;6.15;2.78;;;;;;;;;;6213257;28;20561;-71
2021/01/15 11:13:40;;;;;;;5.55;2.67;;;;;;;;;;6211411;28;20054;-69
2021/01/15 11:16:41;;;;;;;6.38;3.13;;;;;;;;;;6209086;28;20136;-69
2021/01/15 11:19:43;;;;;;;7.47;2.70;;;;;;;;;;6212988;28;20049;-70
2021/01/15 11:22:44;;;;;;;4.68;2.80;;;;;;;;;;6210915;28;20053;-69
2021/01/15 11:25:45;;;;;;;6.38;2.70;;;;;;;;;;6213316;28;20052;-70
2021/01/15 11:28:47;;;;;;;4.90;2.53;;;;;;;;;;6213668;28;20049;-69
2021/01/15 11:31:48;;;;;;;5.60;2.40;;;;;;;;;;6207007;28;20041;-70
2021/01/15 11:34:50;;;;;;;9.02;2.90;;;;;;;;;;6204034;28;20464;-69
2021/01/15 11:37:57;;;;;;;4.65;2.60;;;;;;;;;;6205186;28;20934;-70
2021/01/15 11:40:58;;;;;;;4.18;2.58;;;;;;;;;;6207244;28;20054;-69
2021/01/15 11:44:00;;;;;;;6.00;2.55;;;;;;;;;;6208557;28;20133;-68
2021/01/15 11:47:01;;;;;;;6.70;2.50;;;;;;;;;;6208322;28;20046;-71
2021/01/15 11:50:03;;;;;;;5.57;2.47;;;;;;;;;;6209738;28;20176;-69
2021/01/15 11:53:04;;;;;;;4.43;2.40;;;;;;;;;;6208506;28;20102;-69
2021/01/15 11:56:06;;;;;;;6.68;2.60;;;;;;;;;;6206128;28;20133;-71
2021/01/15 11:59:08;;;;;;;5.53;2.33;;;;;;;;;;6208463;28;20048;-69
2021/01/15 12:02:09;;;;;;;6.45;2.80;;;;;;;;;;6209593;28;20525;-69
2021/01/15 12:05:11;;;;;;;7.47;2.53;;;;;;;;;;6212792;28;20706;-68
2021/01/15 12:08:12;;;;;;;4.18;2.10;;;;;;;;;;6210822;28;20544;-70
2021/01/15 12:11:13;;;;;;;6.47;2.50;;;;;;;;;;6205529;28;20062;-70
2021/01/15 12:14:15;;;;;;;4.10;2.28;;;;;;;;;;6205996;28;20101;-71
2021/01/15 12:17:16;;;;;;;5.68;2.40;;;;;;;;;;6206001;28;20493;-74
2021/01/15 12:20:17;;;;;;;4.72;2.58;;;;;;;;;;6205852;28;20049;-72
2021/01/15 12:23:19;;;;;;;5.13;2.45;;;;;;;;;;6202364;28;20116;-72
2021/01/15 12:26:20;;;;;;;5.53;1.92;;;;;;;;;;5859287;28;10000236;-71
2021/01/15 12:29:22;;;;;;;5.05;2.50;;;;;;;;;;5854042;28;10000176;-72
2021/01/15 12:32:23;;;;;;;5.65;2.30;;;;;;;;;;6203425;28;20180;-74
2021/01/15 12:35:24;;;;;;;5.32;2.55;;;;;;;;;;6213202;28;20111;-69
2021/01/15 12:38:25;;;;;;;7.65;2.60;;;;;;;;;;6208427;28;20058;-71
2021/01/15 12:41:26;;;;;;;5.97;2.72;;;;;;;;;;6203629;28;20709;-70
2021/01/15 12:44:28;;;;;;;5.25;2.63;;;;;;;;;;6213605;28;20057;-70
2021/01/15 12:47:30;;;;;;;8.07;3.35;;;;;;;;;;6209760;28;20054;-71
2021/01/15 12:50:31;;;;;;;5.68;2.95;;;;;;;;;;6213746;28;20073;-72
2021/01/15 12:53:32;;;;;;;8.90;2.90;;;;;;;;;;6213978;28;20100;-73
2021/01/15 12:56:38;;;;;;;9.35;2.80;;;;;;;;;;6207721;28;20054;-71
2021/01/15 12:59:40;;;;;;;4.45;2.40;;;;;;;;;;6207137;28;20053;-71
2021/01/15 13:02:41;;;;;;;5.00;2.20;;;;;;;;;;6204073;28;20045;-72
2021/01/15 13:05:42;;;;;;;7.40;2.63;;;;;;;;;;6204982;28;20053;-72
2021/01/15 13:08:43;;;;;;;5.78;2.47;;;;;;;;;;6215881;28;20504;-69
2021/01/15 13:11:44;;;;;;;6.30;2.40;;;;;;;;;;6211978;28;20052;-71
2021/01/15 13:14:46;;;;;;;8.82;2.42;;;;;;;;;;6214649;28;20054;-72
2021/01/15 13:17:49;;;;;;;9.43;2.67;;;;;;;;;;6211138;28;20089;-71
2021/01/15 13:20:50;;;;;;;9.82;2.33;;;;;;;;;;6214769;28;20046;-70
2021/01/15 13:23:51;;;;;;;10.55;2.78;;;;;;;;;;6213084;28;20046;-70
2021/01/15 13:26:52;;;;;;;4.38;2.30;;;;;;;;;;6210238;28;20740;-70
2021/01/15 13:29:54;;;;;;;6.85;2.63;;;;;;;;;;6214620;28;20134;-70
2021/01/15 13:32:55;;;;;;;3.60;1.95;;;;;;;;;;6214220;28;20065;-72
2021/01/15 13:35:56;;;;;;;5.53;2.53;;;;;;;;;;6213736;28;20053;-71
2021/01/15 13:38:57;;;;;;;5.25;2.40;;;;;;;;;;6213616;28;20050;-71
2021/01/15 13:41:58;;;;;;;9.15;2.15;;;;;;;;;;5514179;28;10020676;-70
2021/01/15 13:45:00;;;;;;;6.22;2.50;;;;;;;;;;6204566;28;20101;-69
2021/01/15 13:48:01;;;;;;;4.70;2.22;;;;;;;;;;6200480;28;20481;-71
2021/01/15 13:51:05;;;;;;;6.35;2.30;;;;;;;;;;6203494;28;20038;-71
2021/01/15 13:54:06;;;;;;;9.35;2.13;;;;;;;;;;6209775;28;20092;-71
2021/01/15 13:57:07;;;;;;;6.43;2.47;;;;;;;;;;6213895;28;20069;-72
2021/01/15 14:00:10;;;;;;;4.85;2.00;;;;;;;;;;6204553;28;20034;-69
2021/01/15 14:03:11;;;;;;;6.30;2.20;;;;;;;;;;6208143;28;20358;-73
2021/01/15 14:06:12;;;;;;;4.88;2.00;;;;;;;;;;6207727;28;20457;-71
2021/01/15 14:09:13;;;;;;;5.28;2.00;;;;;;;;;;6206037;28;20038;-73
2021/01/15 14:12:14;;;;;;;3.60;2.30;;;;;;;;;;6208434;28;20554;-73
2021/01/15 14:15:19;;;;;;;4.35;2.05;;;;;;;;;;6211601;28;20137;-72
2021/01/15 14:18:20;;;;;;;6.93;2.35;;;;;;;;;;6207334;28;20041;-69
2021/01/15 14:21:21;;;;;;;6.57;2.70;;;;;;;;;;6214079;28;20042;-71
2021/01/15 14:24:22;;;;;;;4.95;2.45;;;;;;;;;;6212710;28;20060;-71
2021/01/15 14:27:23;;;;;;;3.42;1.80;;;;;;;;;;6205911;28;20080;-69
2021/01/15 14:30:25;;;;;;;5.65;2.20;;;;;;;;;;6207118;28;20136;-71
2021/01/15 14:33:26;;;;;;;4.80;2.20;;;;;;;;;;6208037;28;20054;-70
2021/01/15 14:36:27;;;;;;;4.28;1.80;;;;;;;;;;6211100;28;20084;-71
2021/01/15 14:39:28;;;;;;;4.22;1.90;;;;;;;;;;6208659;28;20802;-70
2021/01/15 14:42:30;;;;;;;4.13;1.92;;;;;;;;;;6208090;28;20074;-69
2021/01/15 14:45:32;;;;;;;5.53;2.22;;;;;;;;;;6206941;28;20041;-71
2021/01/15 14:48:33;;;;;;;4.57;1.92;;;;;;;;;;6206916;28;20577;-69
2021/01/15 14:51:35;;;;;;;7.70;1.92;;;;;;;;;;6201130;28;20061;-72
2021/01/15 14:54:36;;;;;;;5.68;1.80;;;;;;;;;;6201927;28;20137;-71
2021/01/15 14:57:38;;;;;;;5.32;1.90;;;;;;;;;;6209914;28;20160;-70
2021/01/15 15:00:41;;;;;;;8.13;1.88;;;;;;;;;;6203909;28;20041;-70
2021/01/15 15:03:42;;;;;;;7.38;1.88;;;;;;;;;;6201359;28;20872;-69
2021/01/15 15:06:43;;;;;;;5.07;2.03;;;;;;;;;;6202333;28;20126;-72
2021/01/15 15:09:44;;;;;;;5.63;2.10;;;;;;;;;;6204966;28;20057;-72
2021/01/15 15:12:48;;;;;;;4.70;2.10;;;;;;;;;;6204735;28;20045;-71
2021/01/15 15:15:50;;;;;;;3.78;2.03;;;;;;;;;;6204634;28;20106;-70
2021/01/15 15:18:52;;;;;;;5.13;2.20;;;;;;;;;;6205671;28;20064;-69
2021/01/15 15:21:53;;;;;;;4.78;2.17;;;;;;;;;;6205849;28;20050;-69
2021/01/15 15:24:54;;;;;;;5.90;2.05;;;;;;;;;;6208386;28;20731;-68
2021/01/15 15:27:55;;;;;;;4.97;2.33;;;;;;;;;;6203446;28;20096;-71
2021/01/15 15:30:57;;;;;;;6.43;2.25;;;;;;;;;;6205594;28;20053;-70
2021/01/15 15:33:59;;;;;;;8.27;2.78;;;;;;;;;;6207212;28;20437;-70
2021/01/15 15:37:00;;;;;;;5.20;2.60;;;;;;;;;;6201326;28;20049;-72
2021/01/15 15:40:01;;;;;;;5.30;2.33;;;;;;;;;;6206049;28;20080;-70
2021/01/15 15:43:02;;;;;;;3.83;2.30;;;;;;;;;;6207227;28;20065;-71
2021/01/15 15:46:05;;;;;;;6.80;2.28;;;;;;;;;;6201645;28;20066;-70
2021/01/15 15:49:06;;;;;;;10.82;2.38;;;;;;;;;;6200791;28;20164;-71
2021/01/15 15:52:08;;;;;;;4.07;1.88;;;;;;;;;;6203191;28;20494;-71
2021/01/15 15:55:10;;;;;;;5.35;1.83;;;;;;;;;;6204914;28;20058;-72
2021/01/15 15:58:12;;;;;;;3.67;2.03;;;;;;;;;;6204958;28;20088;-72
2021/01/15 16:01:14;;;;;;;4.35;2.10;;;;;;;;;;6205659;28;20192;-70
2021/01/15 16:04:15;;;;;;;5.00;2.30;;;;;;;;;;6208401;28;20068;-70
2021/01/15 16:07:17;;;;;;;7.53;1.98;;;;;;;;;;6198518;28;20073;-72
2021/01/15 16:10:18;;;;;;;3.20;2.10;;;;;;;;;;6210135;28;20157;-72
2021/01/15 16:13:19;;;;;;;3.65;2.05;;;;;;;;;;6208969;28;20528;-70
2021/01/15 16:16:21;;;;;;;7.13;2.08;;;;;;;;;;6212927;28;20162;-70
2021/01/15 16:19:22;;;;;;;4.47;2.30;;;;;;;;;;6213575;28;20145;-71
2021/01/15 16:22:24;;;;;;;7.45;2.40;;;;;;;;;;6207606;28;20100;-70
2021/01/15 16:25:26;;;;;;;4.80;2.83;;;;;;;;;;6212222;28;20117;-71
2021/01/15 16:28:27;;;;;;;12.32;2.60;;;;;;;;;;6212843;28;20140;-71
2021/01/15 16:31:29;;;;;;;3.60;2.38;;;;;;;;;;6213634;28;20632;-71
2021/01/15 16:34:30;;;;;;;8.65;3.00;;;;;;;;;;6214218;28;20045;-69
2021/01/15 16:37:32;;;;;;;5.07;2.28;;;;;;;;;;6215646;28;20076;-69
2021/01/15 16:40:33;;;;;;;8.32;2.60;;;;;;;;;;6218456;28;20181;-69
2021/01/15 16:43:36;;;;;;;7.97;2.40;;;;;;;;;;6214966;28;20062;-71
2021/01/15 16:46:38;;;;;;;7.32;2.75;;;;;;;;;;6217726;28;20718;-68
2021/01/15 16:49:40;;;;;;;5.60;2.47;;;;;;;;;;6213757;28;20169;-70
2021/01/15 16:52:41;;;;;;;5.72;2.90;;;;;;;;;;6208829;28;20096;-69
2021/01/15 16:55:42;;;;;;;7.30;2.75;;;;;;;;;;6215935;28;20144;-69
2021/01/15 16:58:43;;;;;;;7.20;2.58;;;;;;;;;;6215806;28;20145;-69
2021/01/15 17:01:51;;;;;;;4.97;2.53;;;;;;;;;;6208314;28;20046;-70
2021/01/15 17:04:52;;;;;;;6.28;2.45;;;;;;;;;;6209740;28;20081;-73
2021/01/15 17:07:53;;;;;;;7.88;2.70;;;;;;;;;;6206331;28;20501;-71
2021/01/15 17:10:54;;;;;;;9.30;2.55;;;;;;;;;;6208576;28;20046;-71
2021/01/15 17:13:55;;;;;;;4.38;2.22;;;;;;;;;;6203080;28;20057;-71
2021/01/15 17:16:57;;;;;;;7.35;2.53;;;;;;;;;;6209603;28;20140;-70
2021/01/15 17:19:58;;;;;;;6.18;2.00;;;;;;;;;;6211006;28;20048;-70
2021/01/15 17:23:00;;;;;;;3.78;1.80;;;;;;;;;;6215113;28;20134;-70
2021/01/15 17:26:02;;;;;;;5.30;2.20;;;;;;;;;;6216018;28;20048;-69
2021/01/15 17:29:03;;;;;;;5.85;2.30;;;;;;;;;;6209520;28;20062;-70
2021/01/15 17:32:11;;;;;;;3.70;2.08;;;;;;;;;;6205273;28;20111;-71
2021/01/15 17:35:12;;;;;;;5.55;2.30;;;;;;;;;;6207622;28;20046;-71
2021/01/15 17:38:15;;;;;;;9.70;3.28;;;;;;;;;;6206453;28;20111;-74
2021/01/15 17:41:16;;;;;;;8.43;2.55;;;;;;;;;;6211233;28;20054;-74
2021/01/15 17:44:19;;;;;;;5.13;2.60;;;;;;;;;;6213815;28;20405;-72
2021/01/15 17:47:27;;;;;;;8.60;2.67;;;;;;;;;;6206322;28;20046;-73
2021/01/15 17:50:31;;;;;;;3.92;2.30;;;;;;;;;;6210830;28;20073;-71
2021/01/15 17:53:32;;;;;;;5.63;2.53;;;;;;;;;;6205867;28;20633;-72
2021/01/15 17:56:33;;;;;;;5.68;2.28;;;;;;;;;;6206055;28;20161;-71
2021/01/15 17:59:36;;;;;;;5.80;2.35;;;;;;;;;;6203701;28;20129;-71
2021/01/15 18:02:38;;;;;;;5.35;3.33;;;;;;;;;;6210028;28;20045;-72
2021/01/15 18:05:40;;;;;;;4.63;2.72;;;;;;;;;;6209789;28;20125;-72
2021/01/15 18:08:41;;;;;;;7.18;3.05;;;;;;;;;;6211447;28;20049;-74